Time;durP1;ratioP1;P1;durP2;ratioP2;P2;SDS_P1;SDS_P2;PMS_P1;PMS_P2;Temp;Humidity;BMP_temperature;BMP_pressure;BME280_temperature;BME280_humidity;BME280_pressure;Samples;Min_cycle;Max_cycle;Signal;HPM_P1;HPM_P2
2023/02/28 00:00:08;;;;;;;9.38;4.75;;;;;;;;;;5054296;28;20040;-77
2023/02/28 00:02:34;;;;;;;10.70;5.63;;;;;;;;;;5053985;28;20476;-75
2023/02/28 00:05:03;;;;;;;9.30;5.15;;;;;;;;;;5054119;28;20024;-76
2023/02/28 00:07:29;;;;;;;10.85;5.63;;;;;;;;;;5035918;28;20021;-80
2023/02/28 00:09:55;;;;;;;9.88;4.88;;;;;;;;;;5053986;28;20021;-76
2023/02/28 00:12:21;;;;;;;8.85;4.65;;;;;;;;;;5054700;28;20044;-77
2023/02/28 00:14:47;;;;;;;10.80;4.93;;;;;;;;;;5064614;28;20032;-75
2023/02/28 00:17:13;;;;;;;10.10;5.80;;;;;;;;;;5059133;28;20021;-76
2023/02/28 00:19:39;;;;;;;9.18;5.25;;;;;;;;;;5053705;28;20025;-77
2023/02/28 00:22:06;;;;;;;8.30;4.90;;;;;;;;;;5035789;28;20487;-80
2023/02/28 00:24:33;;;;;;;6.65;4.88;;;;;;;;;;5052934;28;20512;-75
2023/02/28 00:26:59;;;;;;;8.68;5.00;;;;;;;;;;5053403;28;20159;-78
2023/02/28 00:29:25;;;;;;;8.48;5.10;;;;;;;;;;5053385;28;20082;-77
2023/02/28 00:31:50;;;;;;;8.20;5.15;;;;;;;;;;5054942;28;20095;-76
2023/02/28 00:34:16;;;;;;;12.93;6.00;;;;;;;;;;5063292;28;20036;-75
2023/02/28 00:36:45;;;;;;;8.52;4.97;;;;;;;;;;5053059;28;20048;-77
2023/02/28 00:39:11;;;;;;;11.85;5.70;;;;;;;;;;5058390;28;20628;-76
2023/02/28 00:41:37;;;;;;;10.60;5.25;;;;;;;;;;5053400;28;20025;-76
2023/02/28 00:44:03;;;;;;;10.02;6.05;;;;;;;;;;5053262;28;20375;-76
2023/02/28 00:46:29;;;;;;;9.65;5.85;;;;;;;;;;5052285;28;20037;-76
2023/02/28 00:48:55;;;;;;;8.77;5.03;;;;;;;;;;5053088;28;20025;-76
2023/02/28 00:51:21;;;;;;;9.82;5.45;;;;;;;;;;5053423;28;20017;-76
2023/02/28 00:53:47;;;;;;;9.07;5.38;;;;;;;;;;5072118;28;20028;-76
2023/02/28 00:56:13;;;;;;;8.85;5.53;;;;;;;;;;5073206;28;20501;-76
2023/02/28 00:58:39;;;;;;;9.10;5.35;;;;;;;;;;5072730;28;20410;-75
2023/02/28 01:01:05;;;;;;;8.35;5.50;;;;;;;;;;5073272;28;20017;-75
2023/02/28 01:03:32;;;;;;;11.27;5.85;;;;;;;;;;5055154;28;20028;-75
2023/02/28 01:05:58;;;;;;;10.85;5.72;;;;;;;;;;5052964;28;20028;-73
2023/02/28 01:08:25;;;;;;;12.20;5.10;;;;;;;;;;5052568;28;20036;-74
2023/02/28 01:10:51;;;;;;;9.27;5.50;;;;;;;;;;5053139;28;20021;-75
2023/02/28 01:13:18;;;;;;;9.95;5.57;;;;;;;;;;5067782;28;20070;-75
2023/02/28 01:15:46;;;;;;;9.63;4.82;;;;;;;;;;5054164;28;20426;-75
2023/02/28 01:18:12;;;;;;;9.95;5.40;;;;;;;;;;5052608;28;20021;-75
2023/02/28 01:20:38;;;;;;;10.07;5.50;;;;;;;;;;5062287;28;20029;-74
2023/02/28 01:23:04;;;;;;;10.05;5.70;;;;;;;;;;5072869;28;20383;-75
2023/02/28 01:25:30;;;;;;;8.45;5.32;;;;;;;;;;5072731;28;20031;-75
2023/02/28 01:27:56;;;;;;;8.85;5.40;;;;;;;;;;5068639;28;20025;-75
2023/02/28 01:30:22;;;;;;;8.63;5.60;;;;;;;;;;5052418;28;20540;-75
2023/02/28 01:32:49;;;;;;;9.13;5.95;;;;;;;;;;5052457;28;20033;-75
2023/02/28 01:35:15;;;;;;;8.68;5.15;;;;;;;;;;5052648;28;20025;-74
2023/02/28 01:37:41;;;;;;;10.55;5.82;;;;;;;;;;5052211;28;20352;-76
2023/02/28 01:40:08;;;;;;;8.23;5.40;;;;;;;;;;5034295;28;20043;-76
2023/02/28 01:42:34;;;;;;;10.00;5.70;;;;;;;;;;5052180;28;20029;-73
2023/02/28 01:45:00;;;;;;;17.27;6.47;;;;;;;;;;5052124;28;20509;-76
2023/02/28 01:47:29;;;;;;;10.52;5.90;;;;;;;;;;5051956;28;20033;-76
2023/02/28 01:49:56;;;;;;;9.40;6.00;;;;;;;;;;5052032;28;20025;-77
2023/02/28 01:52:22;;;;;;;9.93;6.35;;;;;;;;;;5052129;28;20024;-76
2023/02/28 01:54:52;;;;;;;13.57;6.82;;;;;;;;;;5052312;28;20029;-76
2023/02/28 01:57:21;;;;;;;7.45;4.18;;;;;;;;;;5066551;28;20027;-77
2023/02/28 01:59:53;;;;;;;10.45;6.13;;;;;;;;;;5072186;28;20025;-76
2023/02/28 02:02:21;;;;;;;14.98;6.07;;;;;;;;;;5071981;28;20382;-73
2023/02/28 02:04:52;;;;;;;11.77;6.53;;;;;;;;;;5053921;28;20551;-76
2023/02/28 02:07:18;;;;;;;;;;;;;;;;;;5071914;28;20356;-77
2023/02/28 02:09:44;;;;;;;9.88;5.53;;;;;;;;;;5069494;28;19908;-76
2023/02/28 02:12:23;;;;;;;9.93;6.20;;;;;;;;;;5057318;28;20012;-76
2023/02/28 02:15:03;;;;;;;14.40;6.38;;;;;;;;;;5073910;28;20036;-76
2023/02/28 02:17:44;;;;;;;10.65;5.13;;;;;;;;;;5078558;28;20029;-80
2023/02/28 02:20:29;;;;;;;12.30;5.97;;;;;;;;;;5079728;28;20051;-75
2023/02/28 02:23:15;;;;;;;13.40;6.35;;;;;;;;;;5075682;28;20480;-76
2023/02/28 02:26:00;;;;;;;13.30;7.20;;;;;;;;;;5069838;28;20113;-75
2023/02/28 02:28:26;;;;;;;12.30;6.75;;;;;;;;;;5050991;28;20033;-76
2023/02/28 02:31:04;;;;;;;8.52;5.60;;;;;;;;;;5051587;28;20175;-76
2023/02/28 02:33:30;;;;;;;10.65;6.30;;;;;;;;;;5051126;28;20117;-75
2023/02/28 02:35:59;;;;;;;9.98;6.00;;;;;;;;;;5055301;28;20428;-77
2023/02/28 02:38:34;;;;;;;13.38;7.10;;;;;;;;;;5071311;28;20029;-78
2023/02/28 02:41:07;;;;;;;10.77;6.53;;;;;;;;;;5053678;28;20032;-77
2023/02/28 02:43:33;;;;;;;11.52;6.50;;;;;;;;;;5054404;28;20036;-77
2023/02/28 02:46:06;;;;;;;9.98;6.13;;;;;;;;;;5051757;28;20135;-77
2023/02/28 02:48:34;;;;;;;11.35;5.78;;;;;;;;;;5051097;28;20064;-76
2023/02/28 02:51:02;;;;;;;11.93;6.70;;;;;;;;;;5051134;28;20060;-76
2023/02/28 02:53:30;;;;;;;13.70;7.35;;;;;;;;;;5050876;28;20372;-75
2023/02/28 02:55:57;;;;;;;10.85;6.10;;;;;;;;;;5051010;28;20486;-76
2023/02/28 02:58:29;;;;;;;16.50;6.82;;;;;;;;;;5050886;28;20409;-77
2023/02/28 03:00:58;;;;;;;11.80;6.97;;;;;;;;;;5051347;28;20029;-76
2023/02/28 03:03:28;;;;;;;12.88;6.55;;;;;;;;;;5050744;28;20502;-77
2023/02/28 03:05:55;;;;;;;12.40;6.35;;;;;;;;;;5050729;28;20394;-77
2023/02/28 03:08:21;;;;;;;12.38;6.43;;;;;;;;;;5050492;28;20087;-77
2023/02/28 03:10:51;;;;;;;9.35;6.40;;;;;;;;;;5053726;28;20078;-76
2023/02/28 03:13:33;;;;;;;13.82;6.95;;;;;;;;;;5054818;28;20021;-75
2023/02/28 03:16:08;;;;;;;12.43;6.53;;;;;;;;;;5054753;28;20044;-76
2023/02/28 03:18:44;;;;;;;13.48;6.50;;;;;;;;;;5054353;28;20082;-77
2023/02/28 03:21:19;;;;;;;13.85;7.18;;;;;;;;;;5036788;28;20109;-75
2023/02/28 03:24:02;;;;;;;11.00;6.65;;;;;;;;;;5054482;28;20498;-76
2023/02/28 03:26:29;;;;;;;12.65;6.75;;;;;;;;;;5036656;28;20033;-76
2023/02/28 03:29:04;;;;;;;11.75;6.90;;;;;;;;;;5053818;28;20494;-76
2023/02/28 03:31:34;;;;;;;13.00;7.07;;;;;;;;;;5054369;28;20482;-76
2023/02/28 03:34:00;;;;;;;11.60;7.15;;;;;;;;;;5054158;28;20033;-75
2023/02/28 03:36:29;;;;;;;16.65;7.55;;;;;;;;;;5054702;28;20032;-75
2023/02/28 03:38:57;;;;;;;12.10;6.82;;;;;;;;;;5054064;28;20120;-75
2023/02/28 03:41:27;;;;;;;14.57;7.40;;;;;;;;;;5053929;28;20025;-75
2023/02/28 03:43:57;;;;;;;11.75;6.75;;;;;;;;;;5054187;28;20032;-75
2023/02/28 03:46:25;;;;;;;12.82;7.63;;;;;;;;;;5054307;28;20487;-76
2023/02/28 03:48:57;;;;;;;11.63;7.38;;;;;;;;;;5054045;28;20475;-75
2023/02/28 03:51:24;;;;;;;12.80;7.72;;;;;;;;;;5054084;28;20025;-80
2023/02/28 03:53:55;;;;;;;14.75;7.60;;;;;;;;;;5056702;28;20025;-76
2023/02/28 03:56:41;;;;;;;15.00;8.45;;;;;;;;;;5074121;28;20017;-76
2023/02/28 03:59:15;;;;;;;13.95;7.13;;;;;;;;;;5056039;28;20033;-80
2023/02/28 04:01:48;;;;;;;13.13;7.40;;;;;;;;;;5073961;28;20032;-77
2023/02/28 04:04:14;;;;;;;16.63;8.25;;;;;;;;;;5073984;28;20103;-77
2023/02/28 04:06:41;;;;;;;17.63;8.05;;;;;;;;;;5073995;28;20043;-77
2023/02/28 04:09:08;;;;;;;21.35;8.95;;;;;;;;;;5073945;28;20029;-78
2023/02/28 04:11:38;;;;;;;17.02;9.95;;;;;;;;;;5073855;28;20401;-76
2023/02/28 04:14:05;;;;;;;17.92;10.02;;;;;;;;;;5074029;28;20025;-76
2023/02/28 04:16:32;;;;;;;18.15;9.25;;;;;;;;;;5073947;28;20028;-75
2023/02/28 04:19:01;;;;;;;14.93;8.68;;;;;;;;;;5073344;28;20017;-76
2023/02/28 04:21:27;;;;;;;16.90;8.50;;;;;;;;;;5072546;28;20012;-76
2023/02/28 04:23:54;;;;;;;16.35;9.48;;;;;;;;;;5073377;28;20097;-76
2023/02/28 04:26:20;;;;;;;16.25;9.63;;;;;;;;;;5073301;28;20489;-77
2023/02/28 04:28:45;;;;;;;17.33;9.38;;;;;;;;;;5073283;28;20077;-74
2023/02/28 04:31:11;;;;;;;19.70;10.02;;;;;;;;;;5055337;28;20055;-74
2023/02/28 04:33:37;;;;;;;17.50;9.30;;;;;;;;;;5067920;28;20044;-74
2023/02/28 04:36:05;;;;;;;17.85;10.32;;;;;;;;;;5035334;28;20053;-73
2023/02/28 04:38:38;;;;;;;20.20;9.70;;;;;;;;;;5053114;28;20037;-76
2023/02/28 04:41:05;;;;;;;19.05;9.82;;;;;;;;;;5053276;28;20167;-76
2023/02/28 04:43:31;;;;;;;17.45;9.70;;;;;;;;;;5052829;28;20029;-76
2023/02/28 04:45:58;;;;;;;17.20;9.82;;;;;;;;;;5052986;28;20017;-75
2023/02/28 04:48:31;;;;;;;18.10;10.35;;;;;;;;;;5053043;28;20459;-75
2023/02/28 04:51:01;;;;;;;19.27;9.77;;;;;;;;;;5035237;28;20107;-76
2023/02/28 04:53:28;;;;;;;14.80;7.85;;;;;;;;;;5053349;28;20021;-75
2023/02/28 04:55:54;;;;;;;18.55;10.27;;;;;;;;;;5053572;28;20021;-80
2023/02/28 04:58:22;;;;;;;19.58;9.85;;;;;;;;;;5034813;28;20517;-78
2023/02/28 05:00:49;;;;;;;17.02;9.35;;;;;;;;;;5052942;28;20037;-76
2023/02/28 05:03:14;;;;;;;19.02;10.32;;;;;;;;;;5052840;28;20032;-78
2023/02/28 05:05:40;;;;;;;26.48;11.27;;;;;;;;;;5052849;28;20029;-76
2023/02/28 05:08:07;;;;;;;25.63;12.50;;;;;;;;;;5052686;28;20223;-75
2023/02/28 05:10:33;;;;;;;26.05;11.05;;;;;;;;;;5052723;28;20082;-73
2023/02/28 05:12:59;;;;;;;23.00;11.48;;;;;;;;;;5052547;28;20091;-74
2023/02/28 05:15:25;;;;;;;25.85;11.05;;;;;;;;;;5052815;28;20576;-75
2023/02/28 05:17:51;;;;;;;21.60;11.13;;;;;;;;;;5052718;28;20044;-76
2023/02/28 05:20:17;;;;;;;23.67;11.20;;;;;;;;;;5052611;28;20025;-77
2023/02/28 05:22:43;;;;;;;23.75;11.32;;;;;;;;;;5052393;28;20037;-76
2023/02/28 05:25:14;;;;;;;24.63;12.32;;;;;;;;;;5052552;28;20058;-76
2023/02/28 05:27:40;;;;;;;26.77;11.48;;;;;;;;;;5052065;28;20441;-76
2023/02/28 05:30:10;;;;;;;29.33;12.45;;;;;;;;;;5034469;28;20021;-76
2023/02/28 05:32:36;;;;;;;26.90;11.95;;;;;;;;;;5051765;28;20104;-76
2023/02/28 05:35:02;;;;;;;25.08;11.90;;;;;;;;;;5052295;28;20029;-77
2023/02/28 05:37:28;;;;;;;24.42;11.23;;;;;;;;;;5050340;28;20024;-75
2023/02/28 05:39:57;;;;;;;27.95;12.35;;;;;;;;;;5072038;28;20023;-77
2023/02/28 05:42:23;;;;;;;28.95;13.88;;;;;;;;;;5051858;28;20390;-76
2023/02/28 05:44:49;;;;;;;25.73;11.38;;;;;;;;;;5052016;28;20540;-76
2023/02/28 05:47:16;;;;;;;27.08;12.70;;;;;;;;;;5034000;28;20032;-76
2023/02/28 05:49:42;;;;;;;27.23;13.00;;;;;;;;;;5051987;28;20025;-77
2023/02/28 05:52:08;;;;;;;28.63;13.13;;;;;;;;;;5051931;28;20025;-76
2023/02/28 05:54:34;;;;;;;24.35;11.55;;;;;;;;;;5051830;28;20068;-77
2023/02/28 05:57:00;;;;;;;26.00;13.00;;;;;;;;;;5051772;28;20021;-76
2023/02/28 05:59:26;;;;;;;29.80;13.95;;;;;;;;;;5052004;28;20033;-77
2023/02/28 06:01:53;;;;;;;25.88;13.02;;;;;;;;;;5036743;28;20039;-77
2023/02/28 06:04:20;;;;;;;26.38;13.40;;;;;;;;;;5071677;28;20020;-76
2023/02/28 06:06:46;;;;;;;30.35;13.60;;;;;;;;;;5053820;28;20133;-75
2023/02/28 06:09:13;;;;;;;28.40;13.43;;;;;;;;;;5071060;28;20035;-77
2023/02/28 06:11:40;;;;;;;28.33;13.88;;;;;;;;;;5070074;28;20053;-77
2023/02/28 06:14:07;;;;;;;27.70;13.23;;;;;;;;;;5051478;28;20368;-75
2023/02/28 06:16:34;;;;;;;34.03;17.02;;;;;;;;;;5051428;28;20087;-79
2023/02/28 06:19:00;;;;;;;28.98;14.05;;;;;;;;;;5051399;28;20028;-75
2023/02/28 06:21:29;;;;;;;27.75;13.93;;;;;;;;;;5067777;28;20425;-77
2023/02/28 06:23:56;;;;;;;27.23;13.57;;;;;;;;;;5069053;28;20071;-76
2023/02/28 06:26:22;;;;;;;19.17;11.60;;;;;;;;;;5033357;28;20056;-77
2023/02/28 06:28:48;;;;;;;18.00;9.82;;;;;;;;;;5033037;28;20479;-75
2023/02/28 06:31:15;;;;;;;17.58;8.93;;;;;;;;;;5051240;28;20037;-76
2023/02/28 06:33:42;;;;;;;15.10;7.70;;;;;;;;;;5033351;28;20087;-77
2023/02/28 06:36:09;;;;;;;14.75;8.45;;;;;;;;;;5048324;28;20459;-77
2023/02/28 06:38:35;;;;;;;19.00;8.90;;;;;;;;;;5049123;28;20021;-77
2023/02/28 06:41:02;;;;;;;16.70;8.25;;;;;;;;;;5045460;28;20017;-77
2023/02/28 06:43:29;;;;;;;14.13;8.60;;;;;;;;;;5050990;28;20029;-76
2023/02/28 06:45:56;;;;;;;17.98;9.40;;;;;;;;;;5050409;28;20021;-76
2023/02/28 06:48:22;;;;;;;17.65;9.15;;;;;;;;;;5051208;28;20025;-77
2023/02/28 06:50:48;;;;;;;16.92;9.63;;;;;;;;;;5062114;28;20032;-79
2023/02/28 06:53:14;;;;;;;18.98;8.98;;;;;;;;;;5071181;28;20029;-77
2023/02/28 06:55:41;;;;;;;16.10;8.73;;;;;;;;;;5041154;28;20412;-78
2023/02/28 06:58:14;;;;;;;15.23;8.48;;;;;;;;;;5032754;28;20023;-76
2023/02/28 07:00:40;;;;;;;16.33;8.07;;;;;;;;;;5051074;28;20033;-76
2023/02/28 07:03:06;;;;;;;16.25;8.15;;;;;;;;;;5064373;28;20028;-76
2023/02/28 07:05:35;;;;;;;15.13;8.05;;;;;;;;;;5054056;28;20087;-76
2023/02/28 07:08:01;;;;;;;15.48;8.73;;;;;;;;;;5050294;28;20493;-77
2023/02/28 07:10:27;;;;;;;15.18;9.05;;;;;;;;;;5058425;28;20020;-77
2023/02/28 07:12:53;;;;;;;16.85;9.63;;;;;;;;;;5071372;28;20027;-77
2023/02/28 07:15:19;;;;;;;17.77;10.18;;;;;;;;;;5064417;28;20017;-77
2023/02/28 07:17:45;;;;;;;14.75;8.40;;;;;;;;;;5049369;28;20040;-77
2023/02/28 07:20:11;;;;;;;15.65;9.57;;;;;;;;;;5036275;28;20021;-80
2023/02/28 07:22:38;;;;;;;18.50;10.50;;;;;;;;;;5058898;28;20040;-79
2023/02/28 07:25:04;;;;;;;15.27;8.50;;;;;;;;;;5056352;28;20025;-80
2023/02/28 07:27:30;;;;;;;13.85;8.80;;;;;;;;;;5053080;28;20035;-76
2023/02/28 07:29:56;;;;;;;15.25;9.20;;;;;;;;;;5049369;28;20438;-79
2023/02/28 07:32:22;;;;;;;15.38;8.45;;;;;;;;;;5039589;28;20020;-76
2023/02/28 07:34:49;;;;;;;21.83;9.05;;;;;;;;;;5055919;28;20479;-75
2023/02/28 07:37:15;;;;;;;17.08;9.23;;;;;;;;;;5050591;28;20506;-79
2023/02/28 07:39:44;;;;;;;12.68;8.18;;;;;;;;;;5052520;28;20027;-82
2023/02/28 07:42:11;;;;;;;16.00;9.05;;;;;;;;;;5070607;28;20386;-76
2023/02/28 07:44:40;;;;;;;12.68;7.78;;;;;;;;;;5061305;28;20108;-76
2023/02/28 07:47:09;;;;;;;16.85;8.65;;;;;;;;;;5050569;28;20029;-84
2023/02/28 07:49:36;;;;;;;17.17;8.93;;;;;;;;;;5050598;28;20044;-76
2023/02/28 07:52:03;;;;;;;17.45;8.57;;;;;;;;;;5053695;28;20019;-76
2023/02/28 07:54:29;;;;;;;13.00;8.40;;;;;;;;;;5060665;28;20069;-77
2023/02/28 07:56:55;;;;;;;21.60;9.15;;;;;;;;;;5052075;28;20021;-77
2023/02/28 07:59:21;;;;;;;13.70;8.68;;;;;;;;;;5052295;28;20627;-76
2023/02/28 08:01:50;;;;;;;13.57;8.10;;;;;;;;;;5073199;28;20031;-75
2023/02/28 08:04:16;;;;;;;16.42;9.30;;;;;;;;;;5073147;28;20024;-79
2023/02/28 08:06:42;;;;;;;13.80;8.45;;;;;;;;;;5073534;28;20036;-75
2023/02/28 08:09:08;;;;;;;15.98;8.35;;;;;;;;;;5073664;28;20020;-78
2023/02/28 08:11:34;;;;;;;16.58;9.07;;;;;;;;;;5074223;28;20116;-76
2023/02/28 08:14:00;;;;;;;16.13;9.35;;;;;;;;;;5074042;28;20047;-81
2023/02/28 08:16:26;;;;;;;15.55;9.73;;;;;;;;;;5048465;28;20024;-76
2023/02/28 08:18:52;;;;;;;15.82;9.98;;;;;;;;;;5053521;28;20017;-78
2023/02/28 08:21:19;;;;;;;19.30;10.68;;;;;;;;;;5068848;28;20107;-77
2023/02/28 08:23:47;;;;;;;18.70;10.50;;;;;;;;;;5055408;28;20047;-76
2023/02/28 08:26:13;;;;;;;17.25;9.35;;;;;;;;;;5073655;28;20027;-75
2023/02/28 08:28:40;;;;;;;16.95;9.63;;;;;;;;;;5072963;28;20082;-73
2023/02/28 08:31:10;;;;;;;18.10;9.95;;;;;;;;;;5073400;28;20487;-74
2023/02/28 08:33:36;;;;;;;17.25;9.90;;;;;;;;;;5068174;28;20027;-72
2023/02/28 08:36:02;;;;;;;23.65;9.63;;;;;;;;;;5053477;28;20023;-75
2023/02/28 08:38:29;;;;;;;16.52;9.32;;;;;;;;;;5055967;28;20025;-80
2023/02/28 08:40:59;;;;;;;19.13;10.32;;;;;;;;;;5063591;28;20090;-79
2023/02/28 08:43:25;;;;;;;14.52;10.45;;;;;;;;;;5035843;28;20028;-80
2023/02/28 08:45:56;;;;;;;16.48;9.55;;;;;;;;;;5054453;28;20066;-77
2023/02/28 08:48:22;;;;;;;17.92;9.15;;;;;;;;;;5053626;28;20537;-73
2023/02/28 08:50:57;;;;;;;18.63;9.50;;;;;;;;;;5053499;28;20028;-77
2023/02/28 08:53:23;;;;;;;18.13;9.00;;;;;;;;;;5053196;28;20021;-75
2023/02/28 08:55:56;;;;;;;23.55;10.10;;;;;;;;;;5052713;28;20021;-76
2023/02/28 08:58:22;;;;;;;13.30;8.05;;;;;;;;;;5052806;28;20107;-76
2023/02/28 09:00:48;;;;;;;23.05;8.95;;;;;;;;;;5052760;28;20053;-75
2023/02/28 09:03:14;;;;;;;15.48;8.25;;;;;;;;;;5052894;28;20021;-76
2023/02/28 09:05:40;;;;;;;18.80;9.98;;;;;;;;;;5052858;28;20100;-77
2023/02/28 09:08:06;;;;;;;15.73;8.60;;;;;;;;;;5051226;28;20028;-76
2023/02/28 09:10:32;;;;;;;15.57;8.50;;;;;;;;;;5057616;28;20024;-75
2023/02/28 09:12:58;;;;;;;15.88;8.40;;;;;;;;;;5052250;28;20544;-77
2023/02/28 09:15:24;;;;;;;15.65;8.82;;;;;;;;;;5068260;28;20479;-73
2023/02/28 09:17:50;;;;;;;16.52;9.00;;;;;;;;;;5071899;28;20020;-75
2023/02/28 09:20:16;;;;;;;19.70;8.93;;;;;;;;;;5072115;28;20021;-76
2023/02/28 09:22:42;;;;;;;16.75;8.65;;;;;;;;;;5072298;28;20036;-77
2023/02/28 09:25:08;;;;;;;15.95;8.18;;;;;;;;;;5058503;28;20402;-76
2023/02/28 09:27:34;;;;;;;16.00;8.23;;;;;;;;;;5051905;28;20021;-77
2023/02/28 09:30:00;;;;;;;16.90;8.18;;;;;;;;;;5052279;28;20108;-76
2023/02/28 09:32:26;;;;;;;11.93;7.57;;;;;;;;;;5051982;28;20078;-76
2023/02/28 09:34:53;;;;;;;13.93;8.00;;;;;;;;;;5052491;28;20028;-77
2023/02/28 09:37:19;;;;;;;11.98;6.97;;;;;;;;;;5052005;28;20047;-77
2023/02/28 09:39:45;;;;;;;13.02;7.80;;;;;;;;;;5052168;28;20483;-76
2023/02/28 09:42:31;;;;;;;12.38;7.63;;;;;;;;;;5034210;28;20036;-75
2023/02/28 09:44:59;;;;;;;13.68;7.53;;;;;;;;;;5046255;28;20024;-76
2023/02/28 09:47:37;;;;;;;14.10;8.02;;;;;;;;;;5055164;28;20049;-75
2023/02/28 09:50:18;;;;;;;15.95;7.32;;;;;;;;;;5055740;28;20112;-77
2023/02/28 09:52:44;;;;;;;;;;;;;;;;;;5053863;28;20455;-76
2023/02/28 09:55:31;;;;;;;13.63;8.00;;;;;;;;;;5065229;28;19947;-77
2023/02/28 09:57:59;;;;;;;16.40;8.00;;;;;;;;;;5070692;28;20076;-76
2023/02/28 10:00:30;;;;;;;15.00;6.93;;;;;;;;;;5070879;28;20071;-77
2023/02/28 10:03:15;;;;;;;12.80;7.40;;;;;;;;;;5071684;28;20028;-77
2023/02/28 10:05:52;;;;;;;16.95;7.70;;;;;;;;;;5053527;28;20490;-77
2023/02/28 10:08:34;;;;;;;12.40;6.78;;;;;;;;;;5071469;28;20066;-77
2023/02/28 10:11:06;;;;;;;11.02;6.43;;;;;;;;;;5071766;28;20033;-78
2023/02/28 10:13:46;;;;;;;11.95;7.13;;;;;;;;;;5071562;28;20441;-76
2023/02/28 10:16:15;;;;;;;15.00;6.90;;;;;;;;;;5058649;28;20021;-79
2023/02/28 10:18:45;;;;;;;13.07;6.97;;;;;;;;;;5060662;28;20028;-78
2023/02/28 10:21:20;;;;;;;11.38;7.00;;;;;;;;;;5070298;28;20032;-77
2023/02/28 10:23:47;;;;;;;15.27;6.97;;;;;;;;;;5069591;28;20040;-77
2023/02/28 10:26:15;;;;;;;12.82;6.70;;;;;;;;;;5069911;28;20024;-78
2023/02/28 10:28:42;;;;;;;14.70;7.93;;;;;;;;;;5069189;28;20059;-78
2023/02/28 10:31:12;;;;;;;13.20;7.93;;;;;;;;;;5052079;28;20021;-78
2023/02/28 10:33:38;;;;;;;16.48;8.15;;;;;;;;;;5046967;28;20112;-77
2023/02/28 10:36:06;;;;;;;13.77;7.70;;;;;;;;;;5051877;28;20086;-76
2023/02/28 10:38:32;;;;;;;17.48;8.52;;;;;;;;;;5051833;28;20025;-77
2023/02/28 10:41:24;;;;;;;11.25;6.53;;;;;;;;;;5052022;28;20032;-77
2023/02/28 10:43:50;;;;;;;12.88;7.55;;;;;;;;;;5048179;28;20562;-76
2023/02/28 10:46:26;;;;;;;17.15;9.00;;;;;;;;;;5051886;28;20048;-79
2023/02/28 10:49:06;;;;;;;15.98;9.27;;;;;;;;;;5051096;28;20025;-78
2023/02/28 10:51:36;;;;;;;14.73;9.18;;;;;;;;;;5050899;28;20032;-76
2023/02/28 10:54:03;;;;;;;13.80;9.60;;;;;;;;;;5051571;28;20025;-77
2023/02/28 10:56:29;;;;;;;20.15;9.40;;;;;;;;;;5051171;28;20021;-76
2023/02/28 10:58:58;;;;;;;17.52;8.77;;;;;;;;;;5051058;28;20035;-75
2023/02/28 11:01:24;;;;;;;14.65;9.10;;;;;;;;;;5051250;28;20024;-77
2023/02/28 11:03:50;;;;;;;16.15;8.38;;;;;;;;;;5051155;28;20537;-77
2023/02/28 11:06:18;;;;;;;12.65;8.30;;;;;;;;;;5051302;28;20080;-76
2023/02/28 11:08:49;;;;;;;13.73;7.90;;;;;;;;;;5050977;28;20032;-76
2023/02/28 11:11:16;;;;;;;14.48;8.73;;;;;;;;;;5051385;28;20104;-77
2023/02/28 11:13:42;;;;;;;14.95;8.20;;;;;;;;;;5033342;28;20027;-79
2023/02/28 11:16:10;;;;;;;16.15;7.93;;;;;;;;;;5051799;28;20207;-76
2023/02/28 11:18:36;;;;;;;16.08;7.63;;;;;;;;;;5051380;28;20032;-77
2023/02/28 11:21:03;;;;;;;16.70;8.80;;;;;;;;;;5050786;28;20029;-75
2023/02/28 11:23:30;;;;;;;13.05;8.40;;;;;;;;;;5049892;28;20086;-80
2023/02/28 11:26:00;;;;;;;14.60;8.40;;;;;;;;;;5048256;28;20056;-76
2023/02/28 11:28:31;;;;;;;15.60;8.90;;;;;;;;;;5049476;28;20052;-78
2023/02/28 11:31:19;;;;;;;13.25;8.32;;;;;;;;;;5050542;28;20078;-77
2023/02/28 11:33:52;;;;;;;14.75;8.60;;;;;;;;;;5052798;28;20096;-77
2023/02/28 11:36:21;;;;;;;17.83;8.57;;;;;;;;;;5052912;28;20013;-77
2023/02/28 11:38:49;;;;;;;16.13;8.82;;;;;;;;;;5052863;28;20040;-76
2023/02/28 11:41:24;;;;;;;12.40;7.68;;;;;;;;;;5052617;28;20108;-75
2023/02/28 11:44:05;;;;;;;13.00;7.95;;;;;;;;;;5053551;28;20429;-77
2023/02/28 11:46:32;;;;;;;;;;;;;;;;;;5055045;28;20027;-78
2023/02/28 11:49:07;;;;;;;13.15;8.27;;;;;;;;;;5066454;28;19908;-76
2023/02/28 11:51:47;;;;;;;13.38;8.40;;;;;;;;;;5056443;28;20043;-75
2023/02/28 11:54:48;;;;;;;14.17;8.17;;;;;;;;;;5074347;28;20029;-76
2023/02/28 11:57:25;;;;;;;12.88;7.75;;;;;;;;;;4976323;28;20026;-76
2023/02/28 12:00:08;;;;;;;13.82;8.50;;;;;;;;;;5063642;28;20033;-75
2023/02/28 12:02:50;;;;;;;14.27;8.45;;;;;;;;;;5073929;28;20086;-76
2023/02/28 12:05:22;;;;;;;12.80;7.75;;;;;;;;;;5070807;28;20090;-76
2023/02/28 12:08:10;;;;;;;13.48;7.55;;;;;;;;;;5053662;28;20380;-75
2023/02/28 12:10:54;;;;;;;11.63;7.43;;;;;;;;;;5063149;28;20478;-76
2023/02/28 12:13:38;;;;;;;14.68;7.97;;;;;;;;;;5074132;28;20482;-77
2023/02/28 12:16:19;;;;;;;17.48;7.88;;;;;;;;;;5073922;28;20028;-80
2023/02/28 12:18:45;;;;;;;;;;;;;;;;;;5075000;28;20024;-76
2023/02/28 12:21:18;;;;;;;16.13;8.43;;;;;;;;;;5055945;28;19904;-76
2023/02/28 12:23:53;;;;;;;12.35;7.22;;;;;;;;;;5108396;22;20154;-73
2023/02/28 12:26:38;;;;;;;14.13;7.88;;;;;;;;;;5113527;28;20027;-75
2023/02/28 12:29:10;;;;;;;11.70;7.85;;;;;;;;;;5095480;28;20081;-74
2023/02/28 12:31:41;;;;;;;14.52;7.60;;;;;;;;;;5114154;28;20036;-74
2023/02/28 12:34:11;;;;;;;14.00;7.72;;;;;;;;;;5098320;28;20020;-74
2023/02/28 12:36:37;;;;;;;10.48;6.88;;;;;;;;;;5103288;28;20019;-74
2023/02/28 12:39:06;;;;;;;15.02;7.72;;;;;;;;;;5089381;28;20028;-74
2023/02/28 12:41:44;;;;;;;12.98;7.95;;;;;;;;;;5092036;28;20047;-75
2023/02/28 12:44:13;;;;;;;13.93;7.90;;;;;;;;;;5091379;28;20393;-75
2023/02/28 12:46:43;;;;;;;14.40;8.02;;;;;;;;;;5074213;28;20081;-75
2023/02/28 12:49:18;;;;;;;11.85;7.65;;;;;;;;;;5093179;28;20020;-74
2023/02/28 12:51:45;;;;;;;14.77;7.95;;;;;;;;;;5093014;28;20028;-73
2023/02/28 12:54:17;;;;;;;15.85;8.65;;;;;;;;;;5092413;28;20024;-73
2023/02/28 12:56:49;;;;;;;11.88;7.68;;;;;;;;;;5093165;28;20024;-73
2023/02/28 12:59:23;;;;;;;15.68;9.18;;;;;;;;;;5093281;28;20024;-74
2023/02/28 13:01:52;;;;;;;12.05;8.52;;;;;;;;;;5093470;28;20032;-73
2023/02/28 13:04:36;;;;;;;13.95;9.15;;;;;;;;;;5093820;28;20553;-74
2023/02/28 13:07:21;;;;;;;16.08;9.80;;;;;;;;;;5093067;28;20024;-73
2023/02/28 13:09:57;;;;;;;15.63;10.15;;;;;;;;;;5093105;28;20024;-73
2023/02/28 13:12:23;;;;;;;14.55;9.73;;;;;;;;;;5093135;28;20020;-74
2023/02/28 13:14:50;;;;;;;15.00;9.35;;;;;;;;;;5093033;28;20020;-74
2023/02/28 13:17:20;;;;;;;16.27;10.43;;;;;;;;;;5092729;28;20384;-74
2023/02/28 13:19:53;;;;;;;17.10;10.85;;;;;;;;;;5092867;28;20020;-74
2023/02/28 13:22:21;;;;;;;17.98;10.48;;;;;;;;;;5092698;28;20032;-73
2023/02/28 13:24:51;;;;;;;16.10;10.55;;;;;;;;;;5092935;28;20040;-74
2023/02/28 13:27:23;;;;;;;17.80;10.23;;;;;;;;;;5074071;28;20027;-73
2023/02/28 13:29:50;;;;;;;19.08;10.40;;;;;;;;;;5092735;28;20361;-74
2023/02/28 13:32:20;;;;;;;19.45;10.52;;;;;;;;;;5092660;28;20042;-73
2023/02/28 13:34:52;;;;;;;25.13;10.80;;;;;;;;;;5093011;28;20402;-73
2023/02/28 13:37:18;;;;;;;16.90;10.45;;;;;;;;;;5092225;28;20474;-75
2023/02/28 13:39:44;;;;;;;16.35;9.85;;;;;;;;;;5092479;28;20074;-73
2023/02/28 13:42:36;;;;;;;19.75;10.40;;;;;;;;;;5092351;28;20034;-74
2023/02/28 13:45:02;;;;;;;18.48;10.40;;;;;;;;;;5081846;28;20093;-74
2023/02/28 13:47:49;;;;;;;18.90;11.40;;;;;;;;;;5092014;28;20036;-74
2023/02/28 13:50:15;;;;;;;19.40;10.80;;;;;;;;;;5074723;28;20063;-75
2023/02/28 13:53:00;;;;;;;17.98;10.75;;;;;;;;;;5092206;28;20020;-73
2023/02/28 13:55:26;;;;;;;16.40;10.68;;;;;;;;;;5092036;28;20107;-74
2023/02/28 13:58:00;;;;;;;18.55;11.07;;;;;;;;;;5091995;28;20024;-74
2023/02/28 14:00:32;;;;;;;19.85;12.38;;;;;;;;;;5091978;28;20028;-75
2023/02/28 14:03:17;;;;;;;19.90;10.85;;;;;;;;;;5091993;28;20031;-73
2023/02/28 14:05:43;;;;;;;17.35;11.10;;;;;;;;;;5092020;28;20102;-74
2023/02/28 14:08:21;;;;;;;16.23;10.68;;;;;;;;;;5091814;28;20474;-74
2023/02/28 14:10:52;;;;;;;18.83;9.45;;;;;;;;;;5091964;28;20493;-74
2023/02/28 14:13:38;;;;;;;13.40;8.05;;;;;;;;;;5091892;28;20482;-74
2023/02/28 14:16:06;;;;;;;17.75;11.07;;;;;;;;;;5091662;28;20016;-74
2023/02/28 14:18:34;;;;;;;14.95;10.48;;;;;;;;;;5091838;28;20020;-74
2023/02/28 14:21:35;;;;;;;16.73;9.98;;;;;;;;;;5091770;28;20025;-73
2023/02/28 14:24:01;;;;;;;;;;;;;;;;;;5010036;28;20045;-74
2023/02/28 14:26:27;;;;;;;16.70;10.52;;;;;;;;;;5075361;28;19983;-74
2023/02/28 14:29:17;;;;;;;18.55;11.35;;;;;;;;;;5091719;28;20020;-74
2023/02/28 14:32:03;;;;;;;18.15;10.60;;;;;;;;;;5073429;28;20035;-75
2023/02/28 14:34:55;;;;;;;14.80;10.55;;;;;;;;;;5091813;28;20039;-74
2023/02/28 14:37:28;;;;;;;15.30;9.85;;;;;;;;;;5072435;28;20028;-73
2023/02/28 14:39:56;;;;;;;19.38;11.50;;;;;;;;;;5091705;28;20072;-74
2023/02/28 14:42:29;;;;;;;18.33;10.63;;;;;;;;;;5091470;28;20024;-73
2023/02/28 14:44:58;;;;;;;17.67;11.00;;;;;;;;;;5091913;28;20489;-74